createdAt,value
2017-08-24T00:01:04.272Z,14.77
2017-08-24T00:03:30.799Z,15.70
2017-08-24T00:05:57.230Z,17.97
2017-08-24T00:08:23.669Z,13.83
2017-08-24T00:10:50.029Z,16.17
2017-08-24T00:13:16.469Z,15.83
2017-08-24T00:15:42.882Z,17.27
2017-08-24T00:18:09.629Z,13.43
2017-08-24T00:20:36.030Z,15.07
2017-08-24T00:23:02.406Z,18.40
2017-08-24T00:25:28.786Z,14.17
2017-08-24T00:27:55.756Z,13.60
2017-08-24T00:30:23.570Z,13.40
2017-08-24T00:32:50.065Z,13.23
2017-08-24T00:35:16.395Z,12.40
2017-08-24T00:37:42.807Z,15.87
2017-08-24T00:40:09.137Z,13.23
2017-08-24T00:42:35.852Z,16.50
2017-08-24T00:45:02.242Z,20.23
2017-08-24T00:47:28.610Z,14.07
2017-08-24T00:49:55.014Z,13.43
2017-08-24T00:52:21.442Z,17.50
2017-08-24T00:54:47.845Z,16.70
2017-08-24T00:57:14.219Z,16.60
2017-08-24T00:59:40.889Z,13.00
2017-08-24T01:02:07.367Z,16.00
2017-08-24T01:04:33.724Z,15.70
2017-08-24T01:07:00.054Z,13.77
2017-08-24T01:09:26.410Z,22.53
2017-08-24T01:11:52.810Z,16.67
2017-08-24T01:14:19.185Z,17.10
2017-08-24T01:16:45.570Z,17.10
2017-08-24T01:19:12.017Z,15.70
2017-08-24T01:21:38.767Z,13.23
2017-08-24T01:24:05.213Z,16.17
2017-08-24T01:26:31.659Z,14.03
2017-08-24T01:28:58.066Z,16.33
2017-08-24T01:31:24.461Z,16.40
2017-08-24T01:33:50.839Z,13.40
2017-08-24T01:36:17.226Z,19.10
2017-08-24T01:38:44.007Z,17.80
2017-08-24T01:41:10.998Z,13.90
2017-08-24T01:43:37.763Z,13.80
2017-08-24T01:46:04.779Z,21.67
2017-08-24T01:48:31.198Z,12.70
2017-08-24T01:50:57.573Z,15.53
2017-08-24T01:53:23.972Z,16.43
2017-08-24T01:55:50.352Z,19.77
2017-08-24T01:58:17.962Z,15.60
2017-08-24T02:00:44.735Z,17.07
2017-08-24T02:03:11.204Z,18.20
2017-08-24T02:05:37.565Z,20.77
2017-08-24T02:10:36.970Z,11.93
2017-08-24T02:13:03.358Z,13.60
2017-08-24T02:15:30.094Z,12.77
2017-08-24T02:17:56.513Z,16.43
2017-08-24T02:20:22.883Z,19.77
2017-08-24T02:22:49.669Z,13.60
2017-08-24T02:25:16.080Z,15.70
2017-08-24T02:27:42.461Z,12.80
2017-08-24T02:30:08.953Z,15.93
2017-08-24T02:32:35.307Z,17.00
2017-08-24T02:35:02.056Z,13.77
2017-08-24T02:37:28.518Z,14.30
2017-08-24T02:39:54.879Z,17.60
2017-08-24T02:42:21.289Z,18.03
2017-08-24T02:44:47.675Z,19.33
2017-08-24T02:47:14.053Z,14.60
2017-08-24T02:49:40.489Z,15.57
2017-08-24T02:52:06.850Z,13.77
2017-08-24T02:54:33.237Z,15.87
2017-08-24T02:57:00.029Z,16.07
2017-08-24T02:59:26.384Z,16.40
2017-08-24T03:01:52.794Z,15.97
2017-08-24T03:04:19.188Z,14.30
2017-08-24T03:06:45.565Z,19.70
2017-08-24T03:09:11.959Z,12.60
2017-08-24T03:11:38.331Z,23.90
2017-08-24T03:14:04.793Z,17.00
2017-08-24T03:16:31.149Z,17.13
2017-08-24T03:18:57.523Z,12.27
2017-08-24T03:21:23.890Z,17.73
2017-08-24T03:23:50.602Z,14.80
2017-08-24T03:26:16.971Z,13.87
2017-08-24T03:28:43.364Z,18.67
2017-08-24T03:31:09.759Z,14.53
2017-08-24T03:33:36.136Z,14.17
2017-08-24T03:36:02.542Z,16.80
2017-08-24T03:38:28.929Z,15.13
2017-08-24T03:40:55.521Z,16.40
2017-08-24T03:43:21.892Z,15.10
2017-08-24T03:45:48.639Z,14.60
2017-08-24T03:48:15.035Z,12.70
2017-08-24T03:50:41.424Z,13.20
2017-08-24T03:53:07.837Z,13.40
2017-08-24T03:55:34.248Z,12.50
2017-08-24T03:58:00.617Z,14.87
2017-08-24T04:00:27.075Z,18.60
2017-08-24T04:02:53.522Z,18.00
2017-08-24T04:05:19.956Z,21.47
2017-08-24T04:07:46.723Z,14.20
2017-08-24T04:10:13.016Z,16.97
2017-08-24T04:12:39.402Z,13.00
2017-08-24T04:15:05.791Z,15.93
2017-08-24T04:17:34.235Z,14.17
2017-08-24T04:20:01.926Z,19.00
2017-08-24T04:22:28.974Z,14.57
2017-08-24T04:24:56.026Z,20.60
2017-08-24T04:27:22.457Z,16.20
2017-08-24T04:29:48.841Z,14.90
2017-08-24T04:32:15.238Z,19.13
2017-08-24T04:34:41.600Z,15.97
2017-08-24T04:37:08.032Z,13.97
2017-08-24T04:39:34.434Z,16.47
2017-08-24T04:42:00.877Z,16.20
2017-08-24T04:44:27.339Z,12.93
2017-08-24T04:46:54.069Z,14.90
2017-08-24T04:49:20.494Z,15.07
2017-08-24T04:51:46.849Z,13.90
2017-08-24T04:54:13.269Z,17.93
2017-08-24T04:56:39.667Z,18.20
2017-08-24T04:59:06.036Z,18.03
2017-08-24T05:01:32.423Z,15.37
2017-08-24T05:03:58.823Z,15.80
2017-08-24T05:06:25.195Z,15.80
2017-08-24T05:08:51.592Z,13.30
2017-08-24T05:11:17.942Z,13.03
2017-08-24T05:13:44.353Z,13.97
2017-08-24T05:16:10.721Z,17.67
2017-08-24T05:18:37.065Z,12.50
2017-08-24T05:21:03.794Z,16.03
2017-08-24T05:23:30.180Z,14.10
2017-08-24T05:25:56.512Z,13.30
2017-08-24T05:28:22.948Z,18.00
2017-08-24T05:30:49.319Z,13.87
2017-08-24T05:33:16.053Z,16.33
2017-08-24T05:35:42.511Z,15.93
2017-08-24T05:38:08.867Z,16.40
2017-08-24T05:40:35.313Z,16.40
2017-08-24T05:43:01.718Z,12.63
2017-08-24T05:45:28.086Z,18.17
2017-08-24T05:47:54.505Z,18.23
2017-08-24T05:50:20.874Z,17.67
2017-08-24T05:52:47.253Z,22.90
2017-08-24T05:55:13.654Z,23.33
2017-08-24T05:57:40.023Z,19.87
2017-08-24T06:00:06.734Z,18.90
2017-08-24T06:02:33.163Z,17.87
2017-08-24T06:04:59.585Z,16.43
2017-08-24T06:07:25.995Z,19.50
2017-08-24T06:09:52.726Z,20.13
2017-08-24T06:12:19.206Z,16.93
2017-08-24T06:14:45.553Z,18.50
2017-08-24T06:17:11.934Z,23.23
2017-08-24T06:19:38.548Z,21.07
2017-08-24T06:22:05.210Z,21.27
2017-08-24T06:24:31.560Z,21.87
2017-08-24T06:26:57.950Z,17.80
2017-08-24T06:29:24.339Z,18.60
2017-08-24T06:31:50.704Z,16.07
2017-08-24T06:34:17.144Z,11.93
2017-08-24T06:36:43.522Z,16.60
2017-08-24T06:39:09.900Z,16.17
2017-08-24T06:41:36.331Z,14.37
2017-08-24T06:44:03.024Z,15.37
2017-08-24T06:46:29.407Z,15.60
2017-08-24T06:48:55.789Z,16.97
2017-08-24T06:51:22.202Z,15.30
2017-08-24T06:53:48.555Z,14.03
2017-08-24T06:56:14.904Z,13.17
2017-08-24T06:58:41.716Z,15.03
2017-08-24T07:01:08.104Z,13.03
2017-08-24T07:03:41.480Z,14.73
2017-08-24T07:06:07.868Z,15.57
2017-08-24T07:08:34.253Z,13.30
2017-08-24T07:11:00.937Z,17.10
2017-08-24T07:13:27.370Z,22.90
2017-08-24T07:15:53.740Z,27.43
2017-08-24T07:18:20.115Z,15.10
2017-08-24T07:20:46.476Z,19.80
2017-08-24T07:23:12.859Z,16.23
2017-08-24T07:25:39.264Z,13.33
2017-08-24T07:28:05.717Z,12.43
2017-08-24T07:30:32.179Z,12.33
2017-08-24T07:32:58.841Z,11.33
2017-08-24T07:35:25.217Z,18.60
2017-08-24T07:37:51.629Z,11.10
2017-08-24T07:40:17.969Z,11.10
2017-08-24T07:42:44.321Z,9.07
2017-08-24T07:45:11.364Z,6.43
2017-08-24T07:47:37.740Z,9.67
2017-08-24T07:50:04.153Z,13.20
2017-08-24T07:52:30.550Z,7.53
2017-08-24T07:54:57.804Z,6.53
2017-08-24T07:57:24.161Z,7.40
2017-08-24T07:59:50.591Z,7.43
2017-08-24T08:02:17.042Z,9.40
2017-08-24T08:04:44.580Z,7.63
2017-08-24T08:07:10.954Z,4.33
2017-08-24T08:09:37.397Z,6.77
2017-08-24T08:12:03.767Z,6.23
2017-08-24T08:14:30.136Z,7.77
2017-08-24T08:16:58.940Z,13.13
2017-08-24T08:19:25.996Z,6.53
2017-08-24T08:21:52.399Z,6.00
2017-08-24T08:24:18.809Z,7.80
2017-08-24T08:26:45.198Z,8.57
2017-08-24T08:29:11.627Z,5.93
2017-08-24T08:31:38.278Z,6.93
2017-08-24T08:34:04.643Z,10.67
2017-08-24T08:36:31.030Z,5.90
2017-08-24T08:38:57.417Z,14.23
2017-08-24T08:41:23.859Z,5.10
2017-08-24T08:43:50.937Z,6.43
2017-08-24T08:46:17.437Z,5.90
2017-08-24T08:48:43.810Z,5.50
2017-08-24T08:51:10.226Z,5.67
2017-08-24T08:53:36.614Z,6.80
2017-08-24T08:56:03.003Z,8.60
2017-08-24T08:58:30.649Z,7.13
2017-08-24T09:00:57.077Z,8.67
2017-08-24T09:03:23.483Z,6.70
2017-08-24T09:05:49.911Z,16.73
2017-08-24T09:08:16.310Z,6.67
2017-08-24T09:10:42.666Z,5.10
2017-08-24T09:13:09.112Z,9.03
2017-08-24T09:15:35.525Z,6.37
2017-08-24T09:18:02.405Z,8.23
2017-08-24T09:20:28.862Z,14.37
2017-08-24T09:22:55.226Z,7.73
2017-08-24T09:25:22.306Z,5.93
2017-08-24T09:27:48.719Z,5.70
2017-08-24T09:30:15.514Z,5.70
2017-08-24T09:32:41.893Z,6.70
2017-08-24T09:35:09.062Z,9.13
2017-08-24T09:37:36.310Z,6.90
2017-08-24T09:40:03.245Z,11.37
2017-08-24T09:42:29.639Z,8.10
2017-08-24T09:44:55.993Z,12.70
2017-08-24T09:47:23.731Z,9.83
2017-08-24T09:49:50.104Z,6.33
2017-08-24T09:52:16.516Z,6.97
2017-08-24T09:54:42.857Z,10.27
2017-08-24T09:57:09.200Z,6.27
2017-08-24T09:59:35.572Z,4.83
2017-08-24T10:02:01.986Z,9.47
2017-08-24T10:04:28.319Z,4.00
2017-08-24T10:06:54.797Z,11.73
2017-08-24T10:09:21.175Z,9.17
2017-08-24T10:11:47.603Z,13.60
2017-08-24T10:14:14.125Z,7.10
2017-08-24T10:16:40.591Z,12.83
2017-08-24T10:19:08.134Z,9.50
2017-08-24T10:21:35.460Z,7.90
2017-08-24T10:24:02.504Z,7.20
2017-08-24T10:26:29.781Z,6.37
2017-08-24T10:28:56.236Z,7.70
2017-08-24T10:31:23.449Z,7.07
2017-08-24T10:33:49.901Z,8.10
2017-08-24T10:36:16.910Z,12.67
2017-08-24T10:38:43.274Z,6.20
2017-08-24T10:41:09.644Z,8.10
2017-08-24T10:43:35.993Z,7.70
2017-08-24T10:46:02.698Z,13.60
2017-08-24T10:48:29.043Z,12.13
2017-08-24T10:50:55.425Z,6.30
2017-08-24T10:53:22.337Z,9.70
2017-08-24T10:55:49.788Z,5.50
2017-08-24T10:58:16.196Z,5.03
2017-08-24T11:00:42.597Z,9.27
2017-08-24T11:03:09.024Z,8.20
2017-08-24T11:05:35.401Z,7.10
2017-08-24T11:08:02.559Z,9.87
2017-08-24T11:10:28.979Z,8.27
2017-08-24T11:12:55.765Z,7.50
2017-08-24T11:15:23.200Z,5.90
2017-08-24T11:17:49.760Z,6.17
2017-08-24T11:20:16.304Z,6.77
2017-08-24T11:22:42.693Z,5.97
2017-08-24T11:25:09.140Z,7.90
2017-08-24T11:27:35.508Z,5.70
2017-08-24T11:30:01.882Z,8.57
2017-08-24T11:32:29.123Z,8.80
2017-08-24T11:34:55.664Z,9.80
2017-08-24T11:37:22.506Z,8.50
2017-08-24T11:39:50.381Z,8.43
2017-08-24T11:42:16.880Z,5.27
2017-08-24T11:44:43.506Z,5.87
2017-08-24T11:47:10.376Z,6.07
2017-08-24T11:49:36.832Z,4.80
2017-08-24T11:52:03.227Z,10.07
2017-08-24T11:54:29.596Z,11.23
2017-08-24T11:56:56.069Z,8.63
2017-08-24T11:59:22.464Z,12.20
2017-08-24T12:01:48.907Z,9.00
2017-08-24T12:04:15.356Z,6.20
2017-08-24T12:06:41.849Z,8.37
2017-08-24T12:09:09.189Z,7.43
2017-08-24T12:11:35.948Z,7.43
2017-08-24T12:14:02.360Z,6.60
2017-08-24T12:16:28.724Z,12.50
2017-08-24T12:18:55.187Z,7.07
2017-08-24T12:21:23.785Z,8.47
2017-08-24T12:23:50.831Z,5.83
2017-08-24T12:26:17.692Z,6.23
2017-08-24T12:28:44.124Z,8.00
2017-08-24T12:31:11.354Z,10.20
2017-08-24T12:33:38.942Z,11.63
2017-08-24T12:36:05.383Z,7.40
2017-08-24T12:38:32.068Z,10.90
2017-08-24T12:40:58.409Z,11.17
2017-08-24T12:43:24.860Z,9.07
2017-08-24T12:45:51.287Z,7.83
2017-08-24T12:48:17.646Z,8.53
2017-08-24T12:50:44.006Z,9.57
2017-08-24T12:53:10.395Z,17.00
2017-08-24T12:55:36.913Z,9.27
2017-08-24T12:58:03.317Z,9.37
2017-08-24T13:00:30.375Z,11.63
2017-08-24T13:02:57.625Z,8.80
2017-08-24T13:05:24.423Z,10.13
2017-08-24T13:07:50.795Z,9.30
2017-08-24T13:10:18.453Z,8.17
2017-08-24T13:12:44.857Z,5.30
2017-08-24T13:15:11.222Z,6.57
2017-08-24T13:17:37.605Z,10.13
2017-08-24T13:23:04.425Z,10.90
2017-08-24T13:25:30.913Z,10.13
2017-08-24T13:27:57.533Z,8.63
2017-08-24T13:30:24.559Z,10.17
2017-08-24T13:32:51.297Z,10.03
2017-08-24T13:35:17.645Z,9.97
2017-08-24T13:37:44.022Z,11.83
2017-08-24T13:40:10.401Z,9.40
2017-08-24T13:42:36.880Z,9.13
2017-08-24T13:45:03.274Z,8.17
2017-08-24T13:47:29.771Z,7.10
2017-08-24T13:49:56.266Z,6.53
2017-08-24T13:52:22.655Z,16.17
2017-08-24T13:54:48.998Z,8.70
2017-08-24T13:57:15.496Z,10.13
2017-08-24T13:59:42.183Z,9.83
2017-08-24T14:02:09.392Z,6.40
2017-08-24T14:04:36.108Z,10.83
2017-08-24T14:07:02.486Z,8.73
2017-08-24T14:09:28.853Z,10.40
2017-08-24T14:11:55.325Z,10.90
2017-08-24T14:14:21.665Z,10.80
2017-08-24T14:16:48.123Z,9.80
2017-08-24T14:19:14.639Z,8.90
2017-08-24T14:21:41.001Z,11.50
2017-08-24T14:24:07.351Z,10.97
2017-08-24T14:26:35.611Z,10.90
2017-08-24T14:29:02.307Z,8.60
2017-08-24T14:31:28.654Z,12.57
2017-08-24T14:33:55.021Z,8.87
2017-08-24T14:36:21.352Z,5.97
2017-08-24T14:38:47.697Z,9.40
2017-08-24T14:41:14.702Z,8.67
2017-08-24T14:43:42.063Z,9.70
2017-08-24T14:46:08.449Z,8.60
2017-08-24T14:48:35.183Z,22.53
2017-08-24T14:51:01.562Z,11.00
2017-08-24T14:53:27.969Z,11.20
2017-08-24T14:56:01.428Z,6.60
2017-08-24T14:58:27.808Z,11.57
2017-08-24T15:00:54.180Z,9.50
2017-08-24T15:03:21.083Z,8.80
2017-08-24T15:05:47.489Z,8.63
2017-08-24T15:08:13.854Z,8.73
2017-08-24T15:10:40.249Z,12.60
2017-08-24T15:13:06.864Z,10.27
2017-08-24T15:15:33.504Z,9.73
2017-08-24T15:17:59.938Z,8.63
2017-08-24T15:20:26.663Z,14.27
2017-08-24T15:22:53.016Z,9.60
2017-08-24T15:25:19.388Z,11.17
2017-08-24T15:27:45.749Z,22.50
2017-08-24T15:30:12.108Z,9.57
2017-08-24T15:32:38.507Z,10.17
2017-08-24T15:35:04.831Z,11.20
2017-08-24T15:37:31.210Z,14.20
2017-08-24T15:39:57.579Z,11.20
2017-08-24T15:42:23.947Z,9.93
2017-08-24T15:44:50.309Z,8.30
2017-08-24T15:47:16.684Z,12.47
2017-08-24T15:49:43.237Z,8.37
2017-08-24T15:52:10.256Z,10.43
2017-08-24T15:54:36.613Z,9.10
2017-08-24T15:57:02.976Z,6.83
2017-08-24T15:59:29.362Z,10.10
2017-08-24T16:01:55.781Z,11.07
2017-08-24T16:04:22.385Z,11.33
2017-08-24T16:06:48.796Z,9.70
2017-08-24T16:09:15.330Z,11.00
2017-08-24T16:11:41.726Z,10.63
2017-08-24T16:14:08.157Z,10.10
2017-08-24T16:16:34.567Z,11.13
2017-08-24T16:19:01.073Z,9.03
2017-08-24T16:21:27.516Z,6.27
2017-08-24T16:23:53.996Z,7.50
2017-08-24T16:26:20.459Z,10.80
2017-08-24T16:28:46.897Z,14.50
2017-08-24T16:31:13.419Z,11.90
2017-08-24T16:33:39.871Z,11.13
2017-08-24T16:36:06.668Z,14.60
2017-08-24T16:38:33.088Z,10.00
2017-08-24T16:40:59.512Z,10.03
2017-08-24T16:43:25.942Z,7.87
2017-08-24T16:45:52.323Z,5.53
2017-08-24T16:48:18.728Z,8.73
2017-08-24T16:50:45.165Z,8.13
2017-08-24T16:53:11.587Z,16.17
2017-08-24T16:55:37.947Z,11.50
2017-08-24T16:58:04.584Z,12.07
2017-08-24T17:00:30.927Z,6.87
2017-08-24T17:03:03.399Z,7.50
2017-08-24T17:05:29.789Z,12.93
2017-08-24T17:07:56.165Z,10.73
2017-08-24T17:10:22.554Z,18.47
2017-08-24T17:12:48.884Z,9.33
2017-08-24T17:15:15.260Z,8.27
2017-08-24T17:17:42.890Z,14.83
2017-08-24T17:20:11.655Z,14.50
2017-08-24T17:22:39.239Z,10.70
2017-08-24T17:25:13.862Z,12.70
2017-08-24T17:27:40.390Z,23.37
2017-08-24T17:30:06.875Z,29.83
2017-08-24T17:32:33.404Z,23.93
2017-08-24T17:34:59.778Z,21.90
2017-08-24T17:37:26.157Z,18.30
2017-08-24T17:39:52.554Z,9.50
2017-08-24T17:42:18.927Z,11.93
2017-08-24T17:44:45.318Z,16.03
2017-08-24T17:47:11.717Z,12.67
2017-08-24T17:49:38.085Z,16.53
2017-08-24T17:52:04.759Z,12.60
2017-08-24T17:54:31.102Z,13.40
2017-08-24T17:56:57.469Z,15.80
2017-08-24T17:59:23.875Z,13.67
2017-08-24T18:01:50.265Z,17.40
2017-08-24T18:04:16.657Z,15.83
2017-08-24T18:06:43.177Z,9.40
2017-08-24T18:09:09.861Z,10.70
2017-08-24T18:11:36.371Z,14.97
2017-08-24T18:14:02.834Z,10.00
2017-08-24T18:16:29.585Z,18.97
2017-08-24T18:18:56.142Z,12.77
2017-08-24T18:21:22.615Z,15.67
2017-08-24T18:23:49.311Z,11.93
2017-08-24T18:26:15.704Z,39.00
2017-08-24T18:28:42.851Z,15.20
2017-08-24T18:31:09.232Z,17.37
2017-08-24T18:33:35.650Z,18.60
2017-08-24T18:36:02.069Z,16.43
2017-08-24T18:38:28.473Z,14.90
2017-08-24T18:40:55.118Z,22.53
2017-08-24T18:43:21.532Z,12.60
2017-08-24T18:45:47.926Z,10.50
2017-08-24T18:48:14.344Z,13.30
2017-08-24T18:50:40.770Z,15.23
2017-08-24T18:53:07.152Z,12.43
2017-08-24T18:55:33.533Z,14.83
2017-08-24T18:57:59.934Z,13.43
2017-08-24T19:00:26.378Z,14.67
2017-08-24T19:02:53.102Z,15.63
2017-08-24T19:05:19.491Z,10.60
2017-08-24T19:07:45.918Z,12.57
2017-08-24T19:10:12.377Z,14.70
2017-08-24T19:12:38.758Z,13.30
2017-08-24T19:15:05.267Z,11.47
2017-08-24T19:17:31.693Z,11.27
2017-08-24T19:19:58.270Z,15.50
2017-08-24T19:22:24.669Z,17.67
2017-08-24T19:24:51.357Z,19.50
2017-08-24T19:27:17.751Z,18.13
2017-08-24T19:29:44.196Z,17.33
2017-08-24T19:32:10.616Z,21.43
2017-08-24T19:34:37.067Z,15.00
2017-08-24T19:37:03.465Z,12.40
2017-08-24T19:39:29.917Z,8.23
2017-08-24T19:41:56.451Z,4.73
2017-08-24T19:44:22.895Z,5.67
2017-08-24T19:46:49.317Z,2.30
2017-08-24T19:49:15.747Z,2.17
2017-08-24T19:51:42.449Z,1.70
2017-08-24T19:54:08.848Z,2.87
2017-08-24T19:56:35.232Z,5.17
2017-08-24T19:59:01.649Z,2.40
2017-08-24T20:01:28.831Z,2.03
2017-08-24T20:03:55.643Z,2.57
2017-08-24T20:06:22.074Z,2.63
2017-08-24T20:08:48.752Z,4.60
2017-08-24T20:11:15.197Z,4.33
2017-08-24T20:13:41.561Z,3.33
2017-08-24T20:16:08.862Z,4.40
2017-08-24T20:18:35.388Z,2.37
2017-08-24T20:21:01.877Z,2.90
2017-08-24T20:23:28.325Z,3.37
2017-08-24T20:25:54.683Z,3.37
2017-08-24T20:28:21.126Z,1.50
2017-08-24T20:30:47.901Z,2.70
2017-08-24T20:33:14.244Z,10.53
2017-08-24T20:35:40.614Z,2.23
2017-08-24T20:38:07.173Z,4.20
2017-08-24T20:40:33.589Z,2.67
2017-08-24T20:43:00.020Z,2.60
2017-08-24T20:45:26.414Z,3.60
2017-08-24T20:47:52.826Z,4.33
2017-08-24T20:50:19.180Z,3.43
2017-08-24T20:52:45.888Z,7.40
2017-08-24T20:55:12.733Z,4.40
2017-08-24T20:57:39.110Z,5.20
2017-08-24T21:00:05.515Z,3.67
2017-08-24T21:02:31.871Z,8.00
2017-08-24T21:04:58.255Z,2.63
2017-08-24T21:07:24.659Z,3.03
2017-08-24T21:09:51.044Z,5.80
2017-08-24T21:12:17.411Z,3.87
2017-08-24T21:14:44.203Z,2.90
2017-08-24T21:17:10.550Z,3.73
2017-08-24T21:19:36.952Z,3.70
2017-08-24T21:22:03.308Z,4.93
2017-08-24T21:24:29.732Z,2.70
2017-08-24T21:26:56.095Z,4.70
2017-08-24T21:29:22.460Z,5.67
2017-08-24T21:31:48.844Z,12.70
2017-08-24T21:34:15.207Z,3.80
2017-08-24T21:36:41.937Z,3.40
2017-08-24T21:39:08.342Z,3.73
2017-08-24T21:41:34.698Z,8.43
2017-08-24T21:44:01.122Z,3.00
2017-08-24T21:46:27.516Z,5.50
2017-08-24T21:48:53.881Z,7.27
2017-08-24T21:51:20.239Z,3.53
2017-08-24T21:53:46.609Z,3.30
2017-08-24T21:56:12.964Z,3.23
2017-08-24T21:58:39.622Z,5.00
2017-08-24T22:01:05.947Z,3.43
2017-08-24T22:03:32.356Z,3.47
2017-08-24T22:05:58.729Z,8.50
2017-08-24T22:08:25.118Z,3.00
2017-08-24T22:10:51.473Z,4.53
2017-08-24T22:13:17.859Z,6.43
2017-08-24T22:15:44.305Z,3.60
2017-08-24T22:18:10.699Z,4.33
2017-08-24T22:20:37.374Z,4.03
2017-08-24T22:23:03.659Z,7.43
2017-08-24T22:25:30.032Z,6.93
2017-08-24T22:27:56.396Z,10.27
2017-08-24T22:30:22.734Z,5.40
2017-08-24T22:32:49.105Z,3.23
2017-08-24T22:35:16.354Z,4.40
2017-08-24T22:37:42.824Z,4.50
2017-08-24T22:40:09.209Z,3.83
2017-08-24T22:42:36.261Z,2.93
2017-08-24T22:45:03.310Z,4.90
2017-08-24T22:47:30.086Z,5.07
2017-08-24T22:49:56.428Z,4.60
2017-08-24T22:52:22.777Z,5.57
2017-08-24T22:54:55.262Z,5.57
2017-08-24T22:57:27.566Z,4.30
2017-08-24T22:59:59.876Z,3.00
2017-08-24T23:02:32.209Z,3.63
2017-08-24T23:04:58.569Z,2.67
2017-08-24T23:07:24.935Z,4.10
2017-08-24T23:09:51.291Z,6.53
2017-08-24T23:12:17.657Z,3.33
2017-08-24T23:14:44.141Z,3.93
2017-08-24T23:17:10.518Z,8.57
2017-08-24T23:19:37.238Z,7.50
2017-08-24T23:22:03.617Z,5.37
2017-08-24T23:24:29.965Z,5.13
2017-08-24T23:26:56.409Z,4.80
2017-08-24T23:29:22.774Z,5.97
2017-08-24T23:31:49.204Z,7.00
2017-08-24T23:34:16.102Z,3.60
2017-08-24T23:36:42.828Z,3.80
2017-08-24T23:39:09.186Z,4.63
2017-08-24T23:41:35.958Z,6.53
2017-08-24T23:46:35.759Z,4.73
2017-08-24T23:49:02.115Z,2.83
2017-08-24T23:51:28.474Z,5.47
2017-08-24T23:53:54.868Z,3.37
2017-08-24T23:56:21.254Z,6.63
2017-08-24T23:58:47.659Z,3.37
